M I D A S
Marine Information and Data Acquisition System
Tripno 2298 of the Zeeleeuw from 2012-04-27 08:13:43 to 2012-04-27 12:59:57
Back to CruiseResearch ActivitiesStationsMapUnderway DataData graphs

EquipmentUnitsComment
TimeDGPSUTC
LatitudeDGPSDM.mWGS84
LongitudeDGPSDM.mWGS84
TemperatureSBE03/SBE38deg celciusITS90
ConductivitySBE21S/mITS90
SalinitySBE21 Practical Salinity Units
ChlorophylAChelsea fluorimeterg/lCalibrated in Aceton
Missing or incorrect values are displayed as -999
Sea surface data collected by the RV Zeeleeuw from 2012-04-27 08:11:11 to 2012-04-27 15:30:21
Time Latitude Longitude Temperature Conductivity Salinity ChlorophylA
2012-04-27 08:12:16 51°13.658 2°55.928 17.4147 0.964928 6.098375 -2.458615
2012-04-27 08:13:16 51°13.682 2°55.814 17.4334 0.965031 6.099411 -2.458615
2012-04-27 08:14:16 51°13.696 2°55.755 17.4661 0.948037 5.984131 -2.458615
2012-04-27 08:15:16 51°13.698 2°55.755 17.3678 0.950611 6.001729 -2.458615
2012-04-27 08:16:17 51°13.728 2°55.723 17.3373 0.916625 5.770713 -2.458615
2012-04-27 08:17:16 51°13.83 2°55.64 17.1073 0.917037 5.773819 -2.458615
2012-04-27 08:18:16 51°13.943 2°55.564 17.2737 0.927644 5.846103 -2.458615
2012-04-27 08:19:16 51°14.061 2°55.486 17.2925 0.922495 5.811209 -2.458615
2012-04-27 08:20:16 51°14.184 2°55.391 17.2613 0.91611 5.767966 -2.458615
2012-04-27 08:21:16 51°14.341 2°55.244 17.0043 0.922186 5.809223 -2.458615
2012-04-27 08:22:16 51°14.516 2°55.077 17.1429 0.951744 6.009755 -2.458615
2012-04-27 08:23:13 51°14.651 2°54.855 17.2022 0.819621 5.117636 -2.458615
2012-04-27 08:24:13 51°14.648 2°54.543 17.0093 0.796763 4.964983 -2.458615
2012-04-27 08:25:13 51°14.52 2°54.289 16.8525 0.908592 5.715309 -2.458615
2012-04-27 08:26:13 51°14.379 2°54.042 16.9034 0.928262 5.850292 -2.458615
2012-04-27 08:27:13 51°14.236 2°53.797 16.9421 0.942063 5.94586 -2.458615
2012-04-27 08:28:13 51°14.098 2°53.553 16.956 0.954422 6.031483 -2.458615
2012-04-27 08:29:13 51°13.996 2°53.397 16.9476 0.921774 5.810685 -2.458615
2012-04-27 08:30:13 51°13.927 2°53.276 16.9623 0.955143 6.039151 -2.458615
2012-04-27 08:31:13 51°13.879 2°53.162 16.9819 0.937429 5.91895 -2.458615
2012-04-27 08:32:13 51°13.838 2°53.078 16.9424 0.922495 5.818769 -2.458615
2012-04-27 08:33:13 51°13.804 2°53.014 16.889 0.913741 5.759836 -2.458615
2012-04-27 08:34:13 51°13.779 2°52.966 16.9248 0.949376 6.004103 -2.458615
2012-04-27 08:35:13 51°13.764 2°52.921 16.851 0.967297 6.127499 -2.458615
2012-04-27 08:36:13 51°13.753 2°52.88 16.9341 0.979245 6.210253 -2.458615
2012-04-27 08:37:13 51°13.746 2°52.839 16.9293 1.028892 6.549247 -2.458615
2012-04-27 08:38:13 51°13.751 2°52.765 16.8939 0.965855 6.118679 -2.458615
2012-04-27 08:39:13 51°13.794 2°52.712 16.8578 0.949891 6.00948 -2.458615
2012-04-27 08:40:13 51°13.852 2°52.665 16.9564 1.018901 6.48326 -2.458615
2012-04-27 08:41:13 51°13.84 2°52.54 16.9288 1.036103 6.599921 -2.458615
2012-04-27 08:42:13 51°13.781 2°52.516 16.7871 1.224442 7.898847 -2.458615
2012-04-27 08:43:13 51°13.742 2°52.546 16.8241 1.110895 7.120023 -2.458615
2012-04-27 08:44:13 51°13.718 2°52.566 16.8728 1.089672 6.975617 -2.458615
2012-04-27 08:45:13 51°13.704 2°52.578 16.8839 1.079885 6.90593 -2.458615
2012-04-27 08:46:13 51°13.694 2°52.583 16.9265 1.092659 6.998688 -2.458615
2012-04-27 08:47:13 51°13.689 2°52.585 16.913 1.184358 7.638872 -2.458615
2012-04-27 08:48:13 51°13.686 2°52.585 16.926 1.088127 6.970591 -2.458615
2012-04-27 08:49:13 51°13.684 2°52.582 16.9028 1.055676 6.750857 -2.458615
2012-04-27 08:50:13 51°13.683 2°52.578 16.9338 1.115943 7.170621 -2.458615
2012-04-27 08:51:13 51°13.684 2°52.574 16.9346 1.084727 6.950822 -2.458615
2012-04-27 08:52:13 51°13.684 2°52.567 16.9565 1.173848 7.577013 -2.458615
2012-04-27 08:53:13 51°13.684 2°52.56 16.9395 1.157053 7.453178 -2.458615
2012-04-27 08:54:13 51°13.686 2°52.553 16.9525 1.098326 7.048989 -2.458615
2012-04-27 08:55:13 51°13.687 2°52.545 16.9276 1.15901 7.472299 -2.458615
2012-04-27 08:56:13 51°13.689 2°52.538 16.9184 1.032395 6.593851 -2.458615
2012-04-27 08:57:13 51°13.689 2°52.531 16.9353 1.127173 7.250637 -2.458615
2012-04-27 08:58:13 51°13.69 2°52.522 16.9803 1.109453 7.132481 -2.458615
2012-04-27 08:59:13 51°13.691 2°52.513 16.9655 1.191262 7.70101 -2.458615
2012-04-27 09:00:13 51°13.691 2°52.506 16.9853 1.045375 6.689997 -2.458615
2012-04-27 09:01:13 51°13.692 2°52.5 16.9908 1.058458 6.778645 -2.458615
2012-04-27 09:02:13 51°13.691 2°52.493 16.9832 1.091424 7.008334 -2.458615
2012-04-27 09:03:13 51°13.691 2°52.486 16.9936 1.086891 6.978112 -2.458615
2012-04-27 09:04:13 51°13.69 2°52.479 17.0074 1.099459 7.066735 -2.458615
2012-04-27 09:05:13 51°13.687 2°52.474 17.0083 1.101314 7.073322 -2.458615
2012-04-27 09:06:13 51°13.672 2°52.488 17.0099 1.330698 8.689559 -2.458615
2012-04-27 09:07:13 51°13.649 2°52.516 17.0087 1.957355 13.216241 -2.458615
2012-04-27 09:08:13 51°13.643 2°52.577 17.0049 1.200845 7.773245 -2.458615
2012-04-27 09:09:13 51°13.647 2°52.633 17.057 1.059694 6.795955 -2.458615
2012-04-27 09:10:13 51°13.693 2°52.653 17.0424 0.962663 6.126611 -2.458615
2012-04-27 09:11:13 51°13.744 2°52.613 17.053 0.975331 6.21412 -2.458615
2012-04-27 09:12:13 51°13.785 2°52.563 17.0616 0.961324 6.118005 -2.458615
2012-04-27 09:13:13 51°13.816 2°52.506 17.0706 0.900869 5.704332 -2.458615
2012-04-27 09:14:13 51°13.843 2°52.446 17.0576 0.953599 6.064225 -2.458615
2012-04-27 09:15:13 51°13.862 2°52.398 17.063 0.954011 6.0685 -2.458615
2012-04-27 09:16:13 51°13.869 2°52.374 17.0491 0.946699 6.019244 -2.458615
2012-04-27 09:17:13 51°13.867 2°52.366 17.0642 0.935164 5.939283 -2.458615
2012-04-27 09:18:13 51°13.859 2°52.366 17.0672 0.943609 5.997778 -2.458615
2012-04-27 09:19:13 51°13.845 2°52.365 17.0773 0.948243 6.02959 -2.458615
2012-04-27 09:20:13 51°13.827 2°52.356 17.0729 0.955453 6.079156 -2.458615
2012-04-27 09:21:13 51°13.806 2°52.34 17.0968 0.98388 6.274395 -2.458615
2012-04-27 09:22:13 51°13.788 2°52.315 17.0809 0.95432 6.071736 -2.458615
2012-04-27 09:23:13 51°13.777 2°52.29 17.0918 0.990266 6.318251 -2.458615
2012-04-27 09:24:13 51°13.776 2°52.29 17.0296 0.963075 6.131583 -2.458615
2012-04-27 09:25:13 51°13.767 2°52.323 17.0828 1.181473 7.643991 -2.458615
2012-04-27 09:26:13 51°13.75 2°52.363 17.0555 1.07834 6.925716 -2.458615
2012-04-27 09:27:13 51°13.734 2°52.389 17.0728 1.92041 12.94685 -2.458615
2012-04-27 09:28:13 51°13.718 2°52.399 17.0864 1.726753 11.524387 -2.458615
2012-04-27 09:29:13 51°13.707 2°52.398 17.1301 1.086479 6.982866 -2.458615
2012-04-27 09:30:13 51°13.676 2°52.403 17.0861 1.16066 7.509408 -2.458615
2012-04-27 09:31:13 51°13.612 2°52.361 17.1377 1.072262 6.897794 -2.458615
2012-04-27 09:32:13 51°13.542 2°52.286 17.1596 1.039607 6.670047 -2.458615
2012-04-27 09:33:13 51°13.494 2°52.221 17.1527 1.103581 7.109883 -2.458615
2012-04-27 09:34:13 51°13.464 2°52.172 17.1716 1.03734 6.649579 -2.458615
2012-04-27 09:35:13 51°13.448 2°52.127 17.1468 1.022301 6.545897 -2.458615
2012-04-27 09:36:13 51°13.44 2°52.088 17.1541 1.017769 6.518621 -2.458615
2012-04-27 09:37:13 51°13.435 2°52.054 17.1697 0.980481 6.263214 -2.458615
2012-04-27 09:38:14 51°13.433 2°52.025 17.1563 0.994799 6.360438 -2.458615
2012-04-27 09:39:13 51°13.434 2°51.998 17.1678 0.999846 6.395785 -2.458615
2012-04-27 09:40:13 51°13.434 2°51.953 17.1662 1.00067 6.401698 -2.458615
2012-04-27 09:41:13 51°13.424 2°51.895 17.2019 1.016533 6.509492 -2.458615
2012-04-27 09:42:13 51°13.409 2°51.845 17.1654 0.993768 6.351113 -2.458615
2012-04-27 09:43:13 51°13.396 2°51.811 17.1725 0.989545 6.320421 -2.458615
2012-04-27 09:44:13 51°13.39 2°51.783 17.1888 1.005511 6.433151 -2.458615
2012-04-27 09:45:13 51°13.39 2°51.761 17.1998 0.932383 5.933436 -2.458615
2012-04-27 09:46:13 51°13.388 2°51.717 17.2108 0.961118 6.130521 -2.458615
2012-04-27 09:47:13 51°13.361 2°51.656 17.2068 0.967504 6.172883 -2.458615
2012-04-27 09:48:13 51°13.323 2°51.642 17.2007 1.022301 6.55026 -2.458615
2012-04-27 09:49:13 51°13.295 2°51.652 17.2009 1.790506 12.016733 -2.458615
2012-04-27 09:50:13 51°13.271 2°51.657 17.2195 1.380279 9.072716 -2.458615
2012-04-27 09:51:13 51°13.232 2°51.647 17.1988 1.533997 10.162141 -2.458615
2012-04-27 09:52:13 51°13.196 2°51.566 17.2119 1.15489 7.477016 -2.458615
2012-04-27 09:53:13 51°13.212 2°51.473 17.2426 1.053823 6.779061 -2.458615
2012-04-27 09:54:13 51°13.255 2°51.403 17.2879 1.037444 6.664228 -2.458615
2012-04-27 09:55:13 51°13.303 2°51.347 17.291 0.976671 6.243371 -2.458615
2012-04-27 09:56:13 51°13.331 2°51.297 17.2773 1.017769 6.526477 -2.458615
2012-04-27 09:57:13 51°13.344 2°51.255 17.2733 1.035383 6.648859 -2.458615
2012-04-27 09:58:13 51°13.339 2°51.24 17.3109 0.989958 6.332863 -2.458615
2012-04-27 09:59:13 51°13.325 2°51.237 17.2904 0.947111 6.038348 -2.458615
2012-04-27 10:00:13 51°13.303 2°51.233 17.2923 0.956895 6.105383 -2.458615
2012-04-27 10:01:13 51°13.286 2°51.222 17.2926 0.975229 6.232178 -2.458615
2012-04-27 10:02:13 51°13.276 2°51.208 17.304 0.977495 6.247536 -2.458615
2012-04-27 10:03:13 51°13.27 2°51.193 17.312 0.990988 6.340662 -2.458615
2012-04-27 10:04:13 51°13.267 2°51.179 17.3213 0.944742 6.021654 -2.458615
2012-04-27 10:05:13 51°13.266 2°51.164 17.3121 0.96153 6.136644 -2.458615
2012-04-27 10:06:13 51°13.266 2°51.147 17.3379 0.956174 6.098964 -2.458615
2012-04-27 10:07:13 51°13.266 2°51.129 17.3271 0.935267 5.955604 -2.458615
2012-04-27 10:08:13 51°13.265 2°51.112 17.3103 0.964929 6.158851 -2.458615
2012-04-27 10:09:13 51°13.264 2°51.096 17.336 0.959985 6.123991 -2.458615
2012-04-27 10:10:13 51°13.264 2°51.081 17.3292 0.961118 6.132224 -2.458615
2012-04-27 10:11:13 51°13.263 2°51.067 17.323 0.942682 6.00486 -2.458615
2012-04-27 10:12:13 51°13.263 2°51.055 17.313 0.92919 5.912789 -2.458615
2012-04-27 10:13:13 51°13.263 2°51.041 17.3472 0.97286 6.211855 -2.458615
2012-04-27 10:14:13 51°13.262 2°51.028 17.3445 0.942373 6.002632 -2.458615
2012-04-27 10:15:13 51°13.261 2°51.016 17.3316 0.943094 6.007461 -2.458615
2012-04-27 10:16:13 51°13.26 2°51.002 17.3601 0.945875 6.026297 -2.458615
2012-04-27 10:17:13 51°13.259 2°50.99 17.356 0.959161 6.117429 -2.458615
2012-04-27 10:18:13 51°13.257 2°50.978 17.3646 0.968328 6.180944 -2.458615
2012-04-27 10:19:13 51°13.256 2°50.965 17.3764 0.940828 5.992379 -2.458615
2012-04-27 10:20:13 51°13.256 2°50.95 17.3793 0.964517 6.154881 -2.458615
2012-04-27 10:21:13 51°13.256 2°50.937 17.3877 0.935061 5.952319 -2.458615
2012-04-27 10:22:13 51°13.256 2°50.927 17.3668 0.929705 5.915876 -2.458615
2012-04-27 10:23:13 51°13.251 2°50.924 17.3913 0.929808 5.916362 -2.458615
2012-04-27 10:24:13 51°13.238 2°50.923 17.3657 0.957204 6.10479 -2.458615
2012-04-27 10:25:13 51°13.221 2°50.913 17.3812 0.94639 6.030386 -2.458615
2012-04-27 10:26:13 51°13.206 2°50.899 17.3607 0.951334 6.064398 -2.458615
2012-04-27 10:27:13 51°13.199 2°50.886 17.3905 0.951231 6.063467 -2.458615
2012-04-27 10:28:13 51°13.201 2°50.877 17.3977 0.933722 5.943592 -2.458615
2012-04-27 10:29:13 51°13.207 2°50.866 17.4167 0.933001 5.938326 -2.458615
2012-04-27 10:30:13 51°13.213 2°50.85 17.4176 0.928161 5.904757 -2.458615
2012-04-27 10:31:13 51°13.218 2°50.836 17.4125 0.916523 5.824955 -2.458615
2012-04-27 10:32:13 51°13.22 2°50.823 17.4259 0.909623 5.777599 -2.458615
2012-04-27 10:33:13 51°13.221 2°50.812 17.4181 0.908181 5.76786 -2.458615
2012-04-27 10:34:13 51°13.221 2°50.804 17.4053 0.915802 5.819382 -2.458615
2012-04-27 10:35:13 51°13.222 2°50.798 17.4111 0.938151 5.972595 -2.458615
2012-04-27 10:36:13 51°13.222 2°50.792 17.4252 0.927543 5.899436 -2.458615
2012-04-27 10:37:13 51°13.223 2°50.787 17.4442 0.921775 5.860428 -2.458615
2012-04-27 10:38:13 51°13.223 2°50.781 17.4374 0.932898 5.936741 -2.458615
2012-04-27 10:39:13 51°13.224 2°50.775 17.4465 0.942785 6.004343 -2.458615
2012-04-27 10:40:13 51°13.226 2°50.768 17.4376 0.934031 5.944717 -2.458615
2012-04-27 10:41:13 51°13.226 2°50.762 17.4474 0.928572 5.907685 -2.458615
2012-04-27 10:42:13 51°13.226 2°50.757 17.4555 0.948038 6.041013 -2.458615
2012-04-27 10:43:13 51°13.227 2°50.752 17.4311 0.946184 6.028081 -2.458615
2012-04-27 10:44:13 51°13.227 2°50.748 17.4278 0.925998 5.890941 -2.458615
2012-04-27 10:45:13 51°13.226 2°50.74 17.4571 0.929293 5.913494 -2.458615
2012-04-27 10:46:13 51°13.226 2°50.733 17.4575 0.961839 6.136493 -2.458615
2012-04-27 10:47:13 51°13.225 2°50.727 17.4584 0.921981 5.863247 -2.458615
2012-04-27 10:48:13 51°13.224 2°50.72 17.4243 0.936194 5.96096 -2.458615
2012-04-27 10:49:13 51°13.222 2°50.714 17.4789 0.926719 5.89631 -2.458615
2012-04-27 10:50:13 51°13.219 2°50.706 17.4709 0.939798 5.985987 -2.458615
2012-04-27 10:51:13 51°13.218 2°50.7 17.4564 0.943094 6.008574 -2.458615
2012-04-27 10:52:13 51°13.216 2°50.694 17.481 0.920333 5.852953 -2.458615
2012-04-27 10:53:13 51°13.214 2°50.687 17.488 0.946184 6.03009 -2.458615
2012-04-27 10:54:13 51°13.213 2°50.679 17.4732 0.943094 6.009353 -2.458615
2012-04-27 10:55:13 51°13.212 2°50.669 17.4625 0.907357 5.763834 -2.458615
2012-04-27 10:56:13 51°13.211 2°50.662 17.4765 0.939077 5.981601 -2.458615
2012-04-27 10:57:13 51°13.209 2°50.654 17.48 0.943506 6.012845 -2.458615
2012-04-27 10:58:13 51°13.208 2°50.648 17.4819 0.936091 5.9618 -2.458615
2012-04-27 10:59:13 51°13.207 2°50.642 17.4962 0.953599 6.081519 -2.458615
2012-04-27 11:00:13 51°13.207 2°50.633 17.4999 0.954835 6.09079 -2.458615
2012-04-27 11:01:13 51°13.206 2°50.625 17.5015 0.954217 6.08621 -2.458615
2012-04-27 11:02:13 51°13.207 2°50.618 17.516 0.944948 6.02262 -2.458615
2012-04-27 11:03:13 51°13.207 2°50.612 17.526 0.91642 5.827703 -2.458615
2012-04-27 11:04:13 51°13.208 2°50.607 17.4874 0.930735 5.926107 -2.458615
2012-04-27 11:05:13 51°13.207 2°50.599 17.503 0.940313 5.991957 -2.458615
2012-04-27 11:06:13 51°13.199 2°50.597 17.5088 0.934237 5.950534 -2.458615
2012-04-27 11:07:13 51°13.18 2°50.593 17.5115 0.931559 5.932849 -2.458615
2012-04-27 11:08:13 51°13.158 2°50.578 17.5034 0.939387 5.986601 -2.458615
2012-04-27 11:09:13 51°13.142 2°50.56 17.5113 0.945669 6.02991 -2.458615
2012-04-27 11:10:13 51°13.141 2°50.556 18.2798 0.923526 5.877404 -2.458615
2012-04-27 11:11:13 51°13.144 2°50.567 17.7504 0.958028 6.114976 -2.458615
2012-04-27 11:12:13 51°13.142 2°50.585 17.7569 1.078341 6.946908 -2.458615
2012-04-27 11:13:13 51°13.133 2°50.596 17.7886 1.142114 7.390937 -2.458615
2012-04-27 11:14:13 51°13.122 2°50.602 17.7794 1.142423 7.391176 -2.458615
2012-04-27 11:15:13 51°13.114 2°50.602 17.7941 1.107599 7.152377 -2.458615
2012-04-27 11:16:13 51°13.109 2°50.598 17.7945 1.071541 6.905334 -2.458615
2012-04-27 11:17:13 51°13.106 2°50.594 17.8109 1.056398 6.796413 -2.458615
2012-04-27 11:18:13 51°13.103 2°50.589 17.8135 1.017048 6.527428 -2.458615
2012-04-27 11:19:13 51°13.101 2°50.582 17.8286 0.986353 6.31506 -2.458615
2012-04-27 11:20:13 51°13.099 2°50.575 17.8368 0.999125 6.403033 -2.458615
2012-04-27 11:21:13 51°13.098 2°50.568 17.8436 0.989031 6.334933 -2.458615
2012-04-27 11:22:13 51°13.096 2°50.564 17.8649 0.998816 6.402445 -2.458615
2012-04-27 11:23:13 51°13.095 2°50.558 17.8678 0.975744 6.243707 -2.458615
2012-04-27 11:24:13 51°13.094 2°50.555 15.1187 1.02807 6.598028 -2.458615
2012-04-27 11:25:13 51°13.092 2°50.55 15.6479 1.018902 6.541583 -2.458615
2012-04-27 11:26:13 51°13.091 2°50.545 15.8289 1.019829 6.552375 -2.458615
2012-04-27 11:27:13 51°13.088 2°50.54 15.8234 1.00067 6.41203 -2.458615
2012-04-27 11:28:13 51°13.086 2°50.534 15.9364 1.007159 6.464739 -2.458615
2012-04-27 11:29:13 51°13.081 2°50.527 15.9193 1.02704 6.602173 -2.458615
2012-04-27 11:30:13 51°13.077 2°50.52 16.1717 0.983057 6.297487 -2.458615
2012-04-27 11:31:13 51°13.074 2°50.514 16.2099 0.986353 6.319165 -2.458615
2012-04-27 11:32:13 51°13.071 2°50.509 16.2156 0.991091 6.352679 -2.458615
2012-04-27 11:33:13 51°13.068 2°50.504 16.2583 0.989546 6.338132 -2.458615
2012-04-27 11:34:13 51°13.065 2°50.5 16.3615 1.043212 6.705658 -2.458615
2012-04-27 11:35:13 51°13.062 2°50.495 16.3568 1.000773 6.416432 -2.458615
2012-04-27 11:36:13 51°13.06 2°50.491 16.4374 1.009013 6.476113 -2.458615
2012-04-27 11:37:13 51°13.058 2°50.487 16.5029 1.00891 6.476123 -2.458615
2012-04-27 11:38:13 51°13.056 2°50.484 16.4899 1.001288 6.422492 -2.458615
2012-04-27 11:39:13 51°13.054 2°50.481 16.6393 1.001391 6.42046 -2.458615
2012-04-27 11:40:13 51°13.051 2°50.477 16.5385 0.975744 6.247419 -2.458615
2012-04-27 11:41:13 51°13.05 2°50.473 16.6103 0.986559 6.318591 -2.458615
2012-04-27 11:42:13 51°13.048 2°50.468 16.5804 0.980688 6.279635 -2.458615
2012-04-27 11:43:13 51°13.047 2°50.463 16.6157 0.996653 6.393332 -2.458615
2012-04-27 11:44:13 51°13.045 2°50.458 16.6523 0.99861 6.405781 -2.458615
2012-04-27 11:45:13 51°13.044 2°50.454 16.6715 0.954733 6.103317 -2.458615
2012-04-27 11:46:13 51°13.042 2°50.452 16.7122 0.984396 6.308128 -2.458615
2012-04-27 11:47:13 51°13.039 2°50.449 16.8398 0.97492 6.241972 -2.458615
2012-04-27 11:48:13 51°13.037 2°50.446 16.7784 0.955248 6.105726 -2.458615
2012-04-27 11:49:13 51°13.033 2°50.443 16.8099 0.950407 6.073679 -2.458615
2012-04-27 11:50:13 51°13.03 2°50.442 16.7743 0.953909 6.094479 -2.458615
2012-04-27 11:51:13 51°13.026 2°50.441 16.7755 0.977495 6.256466 -2.458615
2012-04-27 11:52:13 51°13.024 2°50.442 16.8261 0.960088 6.13823 -2.458615
2012-04-27 11:53:13 51°13.021 2°50.441 16.8644 0.961839 6.149707 -2.458615
2012-04-27 11:54:13 51°13.018 2°50.44 16.8455 0.945257 6.03626 -2.458615
2012-04-27 11:55:13 51°13.016 2°50.438 16.9077 0.943506 6.022777 -2.458615
2012-04-27 11:56:13 51°13.014 2°50.437 16.9425 0.951746 6.080063 -2.458615
2012-04-27 11:57:13 51°13.011 2°50.435 16.949 0.926204 5.903393 -2.458615
2012-04-27 11:58:13 51°13.009 2°50.434 16.9332 0.959676 6.132093 -2.458615
2012-04-27 11:59:13 51°13.006 2°50.434 16.9639 0.958131 6.123516 -2.458615
2012-04-27 12:00:13 51°13.003 2°50.435 17.0058 0.934752 5.957263 -2.458615
2012-04-27 12:01:13 51°12.999 2°50.434 16.9974 0.942167 6.01124 -2.458615
2012-04-27 12:02:13 51°12.994 2°50.434 17.0022 0.9536 6.090998 -2.458615
2012-04-27 12:03:13 51°12.989 2°50.434 17.0415 0.957204 6.114644 -2.458615
2012-04-27 12:04:13 51°12.984 2°50.434 17.0458 0.995932 6.373195 -2.458615
2012-04-27 12:05:13 51°12.978 2°50.433 17.0788 1.014988 6.510166 -2.458615
2012-04-27 12:06:13 51°12.972 2°50.434 17.0867 1.012 6.482677 -2.458615
2012-04-27 12:07:13 51°12.967 2°50.434 17.085 0.995005 6.371412 -2.458615
2012-04-27 12:08:13 51°12.961 2°50.433 17.097 0.991709 6.35081 -2.458615
2012-04-27 12:09:13 51°12.954 2°50.432 17.1208 1.014782 6.506208 -2.458615
2012-04-27 12:10:13 51°12.949 2°50.432 17.1114 0.997477 6.377579 -2.458615
2012-04-27 12:11:13 51°12.943 2°50.432 17.1293 0.982645 6.280648 -2.458615
2012-04-27 12:12:13 51°12.938 2°50.432 17.1477 1.023949 6.576253 -2.458615
2012-04-27 12:13:13 51°12.933 2°50.433 17.1497 0.996756 6.391668 -2.458615
2012-04-27 12:14:13 51°12.928 2°50.433 17.1609 0.977804 6.258711 -2.458615
2012-04-27 12:15:13 51°12.923 2°50.434 17.1908 0.99655 6.387754 -2.458615
2012-04-27 12:16:13 51°12.918 2°50.436 17.1859 1.004275 6.435955 -2.458615
2012-04-27 12:17:13 51°12.912 2°50.438 17.2163 1.039298 6.681773 -2.458615
2012-04-27 12:18:13 51°12.907 2°50.439 17.2133 1.003142 6.427301 -2.458615
2012-04-27 12:19:13 51°12.901 2°50.44 17.2195 1.010352 6.479112 -2.458615
2012-04-27 12:20:13 51°12.895 2°50.442 17.2318 0.970182 6.198619 -2.458615
2012-04-27 12:21:13 51°12.888 2°50.442 17.2421 0.990061 6.337801 -2.458615
2012-04-27 12:22:13 51°12.882 2°50.443 17.2516 0.999743 6.40706 -2.458615
2012-04-27 12:23:13 51°12.875 2°50.443 17.2656 0.971521 6.209208 -2.458615
2012-04-27 12:24:13 51°12.868 2°50.445 17.2665 0.983263 6.289679 -2.458615
2012-04-27 12:25:13 51°12.862 2°50.447 17.278 0.995932 6.36989 -2.458615
2012-04-27 12:26:13 51°12.857 2°50.449 17.294 0.97595 6.236329 -2.458615
2012-04-27 12:27:13 51°12.849 2°50.453 17.3004 0.989134 6.332939 -2.458615
2012-04-27 12:28:13 51°12.829 2°50.47 17.3059 0.939387 5.986823 -2.458615
2012-04-27 12:29:13 51°12.823 2°50.519 17.3003 0.929706 5.921687 -2.458615
2012-04-27 12:30:13 51°12.871 2°50.651 17.3203 0.97801 6.253861 -2.458615
2012-04-27 12:31:13 51°12.921 2°50.816 17.3318 0.951231 6.069425 -2.458615
2012-04-27 12:32:13 51°12.975 2°50.963 17.3392 0.920025 5.854418 -2.458615
2012-04-27 12:33:13 51°13.044 2°51.081 17.3472 0.935164 5.957547 -2.458615
2012-04-27 12:34:13 51°13.115 2°51.198 17.3579 0.947935 6.044672 -2.458615
2012-04-27 12:35:13 51°13.173 2°51.331 17.3716 0.964311 6.156431 -2.458615
2012-04-27 12:36:13 51°13.225 2°51.471 17.3782 0.945154 6.024256 -2.458615
2012-04-27 12:37:13 51°13.281 2°51.607 17.392 0.937636 5.972053 -2.458615
2012-04-27 12:38:13 51°13.343 2°51.736 17.3957 0.92641 5.894524 -2.458615
2012-04-27 12:39:13 51°13.406 2°51.865 17.4088 0.967401 6.175491 -2.458615
2012-04-27 12:40:13 51°13.464 2°52.002 17.4141 0.937327 5.968278 -2.458615
2012-04-27 12:41:13 51°13.518 2°52.143 17.4236 0.937739 5.970879 -2.458615
2012-04-27 12:42:13 51°13.575 2°52.281 17.4253 0.92435 5.878252 -2.458615
2012-04-27 12:43:13 51°13.638 2°52.412 17.4389 0.951642 6.064833 -2.458615
2012-04-27 12:44:13 51°13.704 2°52.542 17.4457 0.94948 6.049667 -2.458615
2012-04-27 12:45:13 51°13.763 2°52.681 17.4585 0.959985 6.121271 -2.458615
2012-04-27 12:46:13 51°13.82 2°52.822 17.4745 0.937533 5.966706 -2.458615
2012-04-27 12:47:13 51°13.881 2°52.959 17.4786 0.924762 5.878567 -2.458615
2012-04-27 12:48:13 51°13.948 2°53.091 17.4699 0.945051 6.017085 -2.458615
2012-04-27 12:49:13 51°14.012 2°53.226 17.4827 0.92919 5.908414 -2.458615
2012-04-27 12:50:13 51°14.071 2°53.369 17.5033 0.938253 5.969985 -2.458615
2012-04-27 12:51:13 51°14.131 2°53.512 17.5024 0.937944 5.967429 -2.458615
2012-04-27 12:52:13 51°14.201 2°53.64 17.5055 0.918068 5.830873 -2.458615
2012-04-27 12:53:13 51°14.277 2°53.766 17.5071 0.92641 5.887655 -2.458615
2012-04-27 12:54:13 51°14.347 2°53.924 17.5317 0.949891 6.048126 -2.458615
2012-04-27 12:55:13 51°14.417 2°54.089 17.5163 0.90952 5.771555 -2.458615
2012-04-27 12:56:13 51°14.491 2°54.251 17.5573 0.923938 5.869785 -2.458615
2012-04-27 12:57:13 51°14.567 2°54.414 17.5439 0.99006 6.322793 -2.458615
2012-04-27 12:58:13 51°14.625 2°54.6 17.5082 0.975743 6.224763 -2.458615
2012-04-27 12:59:13 51°14.61 2°54.809 17.4873 0.996859 6.369787 -2.458615
2012-04-27 13:00:13 51°14.532 2°54.986 17.5552 0.970593 6.188148 -2.458615
2012-04-27 13:01:13 51°14.425 2°55.119 17.6029 0.964414 6.145526 -2.458615
2012-04-27 13:02:17 51°14.323 2°55.227 17.6103 0.952466 6.062965 -2.458615
2012-04-27 13:03:16 51°14.229 2°55.324 17.6031 0.944021 6.004698 -2.458615
2012-04-27 13:04:16 51°14.127 2°55.414 17.6053 0.950612 6.049373 -2.458615
2012-04-27 13:05:16 51°14.021 2°55.492 17.6186 0.948861 6.037051 -2.458615
2012-04-27 13:06:16 51°13.915 2°55.565 17.6164 0.95535 6.080809 -2.458615
2012-04-27 13:07:17 51°13.827 2°55.63 17.6747 0.951436 6.053561 -2.458615
2012-04-27 13:08:16 51°13.762 2°55.711 17.6681 0.948758 6.034451 -2.458615
2012-04-27 13:09:17 51°13.701 2°55.795 17.6958 0.957101 6.091227 -2.458615
2012-04-27 13:10:16 51°13.653 2°55.863 17.6746 0.935884 5.945306 -2.458615
2012-04-27 13:11:15 51°13.626 2°55.894 17.7392 0.947625 6.025251 -2.458615
2012-04-27 13:12:16 51°13.624 2°55.895 17.7361 0.958131 6.096817 -2.458615
2012-04-27 13:13:16 51°13.623 2°55.892 17.7601 0.955144 6.075582 -2.458615
2012-04-27 13:14:16 51°13.623 2°55.893 17.7576 0.947934 6.025696 -2.458615
2012-04-27 13:15:16 51°13.623 2°55.893 17.7425 0.938768 5.962263 -2.458615
2012-04-27 13:16:17 51°13.623 2°55.893 17.7798 0.94536 6.006869 -2.458615
2012-04-27 13:17:16 51°13.623 2°55.894 17.7492 0.939901 5.968792 -2.458615
2012-04-27 13:18:17 51°13.623 2°55.894 17.7662 0.936914 5.947732 -2.458615
2012-04-27 13:19:16 51°13.622 2°55.895 17.7759 0.938974 5.96103 -2.458615
2012-04-27 13:20:17 51°13.622 2°55.895 17.8176 0.948758 6.027549 -2.458615
2012-04-27 13:21:16 51°13.622 2°55.894 17.807 0.945154 6.002138 -2.458615
2012-04-27 13:22:16 51°13.622 2°55.894 17.8193 0.944948 5.999956 -2.458615
2012-04-27 13:23:17 51°13.621 2°55.893 17.8083 0.939901 5.96461 -2.458615
2012-04-27 13:24:16 51°13.622 2°55.894 17.8229 0.937326 5.946377 -2.458615
2012-04-27 13:25:17 51°13.622 2°55.894 17.8332 0.938562 5.954154 -2.458615
2012-04-27 13:26:16 51°13.623 2°55.895 17.8392 0.94124 5.97166 -2.458615
2012-04-27 13:27:17 51°13.623 2°55.895 17.8257 0.939283 5.957537 -2.458615
2012-04-27 13:28:16 51°13.623 2°55.894 17.8337 0.940416 5.964498 -2.458615
2012-04-27 13:29:17 51°13.623 2°55.894 17.8597 0.940931 5.967132 -2.458615
2012-04-27 13:30:16 51°13.623 2°55.894 17.8873 0.944741 5.992362 -2.458615
2012-04-27 13:31:16 51°13.623 2°55.894 17.8947 0.945462 5.996399 -2.458615
2012-04-27 13:32:16 51°13.623 2°55.894 17.932 0.949479 6.022925 -2.458615
2012-04-27 13:33:16 51°13.623 2°55.894 17.9422 0.95226 6.041128 -2.458615
2012-04-27 13:34:16 51°13.623 2°55.895 17.9328 0.951745 6.036725 -2.458615
2012-04-27 13:35:16 51°13.623 2°55.895 17.9179 0.94711 6.004107 -2.458615
2012-04-27 13:36:16 51°13.623 2°55.895 17.8785 0.943608 5.979347 -2.458615
2012-04-27 13:37:16 51°13.623 2°55.894 17.9431 0.949067 6.015795 -2.458615
2012-04-27 13:38:17 51°13.623 2°55.894 17.9702 0.949582 6.018421 -2.458615
2012-04-27 13:39:16 51°13.622 2°55.895 17.9738 0.955041 6.054876 -2.458615
2012-04-27 13:40:16 51°13.622 2°55.895 17.946 0.954629 6.051175 -2.458615
2012-04-27 13:41:16 51°13.622 2°55.894 17.9944 0.959469 6.083305 -2.458615
2012-04-27 13:42:16 51°13.622 2°55.895 17.9697 0.957615 6.069542 -2.458615
2012-04-27 13:43:16 51°13.622 2°55.895 17.9925 0.955349 6.053089 -2.458615
2012-04-27 13:44:16 51°13.622 2°55.894 17.9956 0.957924 6.069642 -2.458615
2012-04-27 13:45:16 51°13.623 2°55.894 18.0167 0.95607 6.056002 -2.458615
2012-04-27 13:46:16 51°13.622 2°55.894 18.0399 0.96328 6.104374 -2.458615
2012-04-27 13:47:17 51°13.622 2°55.896 18.0366 0.96534 6.117413 -2.458615
2012-04-27 13:48:16 51°13.623 2°55.896 18.037 0.962765 6.098847 -2.458615
2012-04-27 13:49:16 51°13.621 2°55.895 18.0586 0.964722 6.111179 -2.458615
2012-04-27 13:50:16 51°13.621 2°55.896 18.0645 0.966473 6.122218 -2.458615
2012-04-27 13:51:16 51°13.621 2°55.896 18.0916 0.967915 6.131037 -2.458615
2012-04-27 13:52:16 51°13.62 2°55.895 18.0988 0.967091 6.124409 -2.458615
2012-04-27 13:53:16 51°13.62 2°55.896 18.089 0.966988 6.122584 -2.458615
2012-04-27 13:54:17 51°13.62 2°55.896 18.1064 0.967194 6.122977 -2.458615
2012-04-27 13:55:16 51°13.621 2°55.895 18.1044 0.966164 6.114839 -2.458615
2012-04-27 13:56:17 51°13.621 2°55.895 18.1364 0.9674 6.122136 -2.458615
2012-04-27 13:57:16 51°13.621 2°55.896 18.1523 0.968018 6.125335 -2.458615
2012-04-27 13:58:16 51°13.621 2°55.896 18.1609 0.968224 6.125616 -2.458615
2012-04-27 13:59:16 51°13.621 2°55.895 18.1913 0.962559 6.085829 -2.458615
2012-04-27 14:00:16 51°13.621 2°55.895 18.1773 0.961014 6.074094 -2.458615
2012-04-27 14:01:16 51°13.621 2°55.895 18.2043 0.961014 6.073205 -2.458615
2012-04-27 14:02:16 51°13.62 2°55.895 18.1732 0.956791 6.043277 -2.458615
2012-04-27 14:03:17 51°13.621 2°55.895 18.1928 0.956997 6.043571 -2.458615
2012-04-27 14:04:16 51°13.62 2°55.895 18.2 0.958645 6.053773 -2.458615
2012-04-27 14:05:16 51°13.621 2°55.896 18.2333 0.960087 6.062574 -2.458615
2012-04-27 14:06:16 51°13.622 2°55.896 18.2304 0.964721 6.093073 -2.458615
2012-04-27 14:07:16 51°13.621 2°55.896 18.2166 0.963691 6.084738 -2.458615
2012-04-27 14:08:16 51°13.622 2°55.896 18.2148 0.962456 6.075119 -2.458615
2012-04-27 14:09:16 51°13.622 2°55.896 18.217 0.961838 6.069701 -2.458615
2012-04-27 14:10:16 51°13.622 2°55.896 18.2325 0.964618 6.087365 -2.458615
2012-04-27 14:11:16 51°13.623 2°55.896 18.2427 0.964618 6.086253 -2.458615
2012-04-27 14:12:16 51°13.623 2°55.895 18.3343 0.968635 6.112417 -2.458615
2012-04-27 14:13:16 51°13.623 2°55.895 18.2976 0.955555 6.022099 -2.458615
2012-04-27 14:14:16 51°13.622 2°55.894 18.281 0.956276 6.025669 -2.458615
2012-04-27 14:15:16 51°13.622 2°55.894 18.2813 0.95401 6.009211 -2.458615
2012-04-27 14:16:16 51°13.623 2°55.894 18.2287 0.955761 6.019871 -2.458615
2012-04-27 14:17:16 51°13.623 2°55.894 18.2719 0.957409 6.029831 -2.458615
2012-04-27 14:18:16 51°13.623 2°55.894 18.3003 0.960498 6.049671 -2.458615
2012-04-27 14:19:16 51°13.624 2°55.894 18.311 0.960086 6.045556 -2.458615
2012-04-27 14:20:16 51°13.624 2°55.895 18.3107 0.964618 6.075052 -2.458615
2012-04-27 14:21:17 51°13.624 2°55.895 18.3108 0.959571 6.039426 -2.458615
2012-04-27 14:22:16 51°13.624 2°55.895 18.3061 0.960704 6.045778 -2.458615
2012-04-27 14:23:16 51°13.625 2°55.895 18.3105 0.958129 6.027027 -2.458615
2012-04-27 14:24:16 51°13.625 2°55.895 18.3344 0.962455 6.055101 -2.458615
2012-04-27 14:25:16 51°13.624 2°55.895 18.3338 0.962352 6.053081 -2.458615
2012-04-27 14:26:16 51°13.624 2°55.895 18.3524 0.964 6.063023 -2.458615
2012-04-27 14:27:16 51°13.624 2°55.895 18.3403 0.96194 6.047653 -2.458615
2012-04-27 14:28:16 51°13.625 2°55.895 18.3671 0.964721 6.065256 -2.458615
2012-04-27 14:29:16 51°13.625 2°55.895 18.3629 0.966575 6.076475 -2.458615
2012-04-27 14:30:17 51°13.624 2°55.895 18.3681 0.964721 6.062611 -2.458615
2012-04-27 14:31:16 51°13.624 2°55.895 18.3734 0.968635 6.087868 -2.458615
2012-04-27 14:32:16 51°13.623 2°55.895 18.3711 0.967914 6.081445 -2.458615
2012-04-27 14:33:16 51°13.623 2°55.894 18.3683 0.968017 6.080817 -2.458615
2012-04-27 14:34:16 51°13.623 2°55.896 18.3728 0.96503 6.059087 -2.458615
2012-04-27 14:35:16 51°13.623 2°55.895 18.3816 0.968635 6.082124 -2.458615
2012-04-27 14:36:16 51°13.623 2°55.894 18.3901 0.972445 6.106662 -2.458615
2012-04-27 14:37:17 51°13.625 2°55.895 18.3965 0.973475 6.112294 -2.458615
2012-04-27 14:38:16 51°13.623 2°55.894 18.3995 0.974402 6.117227 -2.458615
2012-04-27 14:39:17 51°13.624 2°55.894 18.4912 0.975535 6.123662 -2.458615
2012-04-27 14:40:16 51°13.625 2°55.895 18.4472 0.971415 6.094175 -2.458615
2012-04-27 14:41:17 51°13.623 2°55.894 18.4133 0.963382 6.038312 -2.458615
2012-04-27 14:42:16 51°13.622 2°55.894 18.4144 0.961734 6.02578 -2.458615
2012-04-27 14:43:17 51°13.623 2°55.894 18.4249 0.962146 6.027139 -2.458615
2012-04-27 14:44:16 51°13.623 2°55.894 18.4281 0.963278 6.033575 -2.458615
2012-04-27 14:45:17 51°13.623 2°55.894 18.451 0.968531 6.067562 -2.458615
2012-04-27 14:46:16 51°13.625 2°55.895 18.451 0.968531 6.066245 -2.458615
2012-04-27 14:47:16 51°13.624 2°55.895 18.4554 0.970488 6.078008 -2.458615
2012-04-27 14:48:17 51°13.622 2°55.894 18.458 0.9709 6.079466 -2.458615
2012-04-27 14:49:16 51°13.623 2°55.894 18.4445 0.969046 6.065329 -2.458615
2012-04-27 14:50:17 51°13.622 2°55.894 18.4642 0.971827 6.082745 -2.458615
2012-04-27 14:51:16 51°13.623 2°55.895 18.45 0.969458 6.065364 -2.458615
2012-04-27 14:52:16 51°13.623 2°55.895 18.451 0.967707 6.052155 -2.458615
2012-04-27 14:53:16 51°13.622 2°55.896 18.4658 0.971518 6.076492 -2.458615
2012-04-27 14:54:16 51°13.623 2°55.895 18.473 0.972548 6.081999 -2.458615
2012-04-27 14:55:16 51°13.623 2°55.896 18.4825 0.974917 6.096515 -2.458615
2012-04-27 14:56:16 51°13.623 2°55.896 18.4901 0.976874 6.108255 -2.458615
2012-04-27 14:57:17 51°13.622 2°55.895 18.4869 0.976256 6.102555 -2.458615
2012-04-27 14:58:16 51°13.621 2°55.896 18.5021 0.979449 6.122606 -2.458615
2012-04-27 14:59:17 51°13.621 2°55.895 18.4478 0.970488 6.060591 -2.458615
2012-04-27 15:00:16 51°13.622 2°55.896 18.5105 0.978934 6.116055 -2.458615
2012-04-27 15:01:17 51°13.622 2°55.895 18.4629 0.96987 6.053494 -2.458615
2012-04-27 15:02:16 51°13.622 2°55.894 18.4951 0.973784 6.078475 -2.458615
2012-04-27 15:03:16 51°13.622 2°55.894 18.5092 0.978109 6.106335 -2.458615
2012-04-27 15:04:17 51°13.623 2°55.894 18.5375 0.973886 6.076542 -2.458615
2012-04-27 15:05:16 51°13.623 2°55.894 18.5372 0.974195 6.077196 -2.458615
2012-04-27 15:06:17 51°13.623 2°55.893 18.5264 0.971002 6.054238 -2.458615
2012-04-27 15:07:16 51°13.624 2°55.894 18.539 0.975122 6.080577 -2.458615
2012-04-27 15:08:17 51°13.624 2°55.893 18.5334 0.976255 6.086759 -2.458615
2012-04-27 15:09:16 51°13.625 2°55.894 18.5799 0.975534 6.08061 -2.458615
2012-04-27 15:10:17 51°13.624 2°55.894 18.5518 0.969354 6.037645 -2.458615
2012-04-27 15:11:16 51°13.622 2°55.895 18.5502 0.969148 6.034856 -2.458615
2012-04-27 15:12:16 51°13.621 2°55.895 18.5552 0.969354 6.034936 -2.458615
2012-04-27 15:13:17 51°13.621 2°55.895 18.5633 0.970487 6.041118 -2.458615
2012-04-27 15:14:16 51°13.621 2°55.895 18.5904 0.974607 6.067634 -2.458615
2012-04-27 15:15:17 51°13.622 2°55.895 18.5788 0.974195 6.06346 -2.458615
2012-04-27 15:16:16 51°13.622 2°55.894 18.5696 0.970075 6.034244 -2.458615
2012-04-27 15:17:17 51°13.623 2°55.894 18.5275 0.964925 5.998165 -2.458615
2012-04-27 15:18:16 51°13.623 2°55.895 18.4951 0.965749 6.002171 -2.458615
2012-04-27 15:19:17 51°13.623 2°55.895 18.4905 0.971311 6.038189 -2.458615
2012-04-27 15:20:16 51°13.623 2°55.895 18.5329 0.973371 6.050779 -2.458615
2012-04-27 15:21:16 51°13.623 2°55.895 18.555 0.976976 6.073596 -2.458615
2012-04-27 15:22:16 51°13.623 2°55.895 18.5149 0.972135 6.039483 -2.458615
2012-04-27 15:23:16 51°13.623 2°55.895 18.5653 0.974195 6.051958 -2.458615
2012-04-27 15:24:17 51°13.623 2°55.897 18.4666 0.97059 6.026027 -2.458615
2012-04-27 15:25:16 51°13.647 2°55.873 18.4578 0.97574 6.059469 -2.458615
2012-04-27 15:26:17 51°13.667 2°55.853 18.483 0.978418 6.076284 -2.458615
2012-04-27 15:27:16 51°13.661 2°55.871 18.5791 0.988615 6.142828 -2.458615
2012-04-27 15:28:16 51°13.644 2°55.94 18.5415 0.977697 6.068427 -2.458615
2012-04-27 15:29:16 51°13.638 2°56.002 18.5009 0.977388 6.064955 -2.458615
2012-04-27 15:30:16 51°13.636 2°56.018 18.4139 0.989233 6.143558 -2.458615